KPOE/POE METAR and TAF weather

Enter ICAO airport designator
Station Type Date Time Source
KPOE METAR 2019/04/20 17:58 UTC NOAA

KPOE 201758Z AUTO 29010KT 9SM CLR 21/04 A3007 RMK AO2 SLP184 T02080039 10208 20083 58007


Station Type Date Time Source
KPOE Decoded METAR 2019/04/20 17:58 UTC NOAA

Fort Polk, Polk AAF Ft Polk, LA, United States (KPOE) 31-03N 093-11-38W
Apr 20, 2019 - 01:58 PM EDT / 2019.04.20 1758 UTC
Wind: from the WNW (290 degrees) at 12 MPH (10 KT):0
Visibility: 9 mile(s):0
Sky conditions: clear
Temperature: 69.4 F (20.8 C)
Dew Point: 39.0 F (3.9 C)
Relative Humidity: 32%
Pressure (altimeter): 30.07 in. Hg (1018 hPa)
Pressure tendency: 0.02 inches (0.7 hPa) lower than three hours ago
ob: KPOE 201758Z AUTO 29010KT 9SM CLR 21/04 A3007 RMK AO2 SLP184 T02080039 10208 20083 58007
cycle: 18

Station Type Date Time Source
KPOE TAF 2019/04/20 16:20 UTC NOAA

TAF KPOE 201600Z 2016/2122 29006KT 9999 SKC QNH3001INS
BECMG 2116/2117 18010G15KT 9999 SKC QNH3007INS TX24/2020Z TN10/2112Z

Example: see airport list